createdAt,value
2022-11-03T00:01:50.987Z,1.55
2022-11-03T00:04:21.697Z,1.70
2022-11-03T00:06:52.215Z,1.70
2022-11-03T00:09:21.929Z,1.58
2022-11-03T00:11:52.952Z,1.45
2022-11-03T00:14:21.276Z,1.30
2022-11-03T00:16:49.725Z,1.25
2022-11-03T00:19:17.754Z,1.27
2022-11-03T00:21:46.722Z,1.48
2022-11-03T00:24:14.862Z,1.42
2022-11-03T00:26:42.798Z,1.55
2022-11-03T00:29:14.802Z,1.67
2022-11-03T00:31:45.319Z,1.70
2022-11-03T00:34:13.472Z,1.67
2022-11-03T00:36:43.821Z,1.55
2022-11-03T00:39:12.454Z,1.48
2022-11-03T00:41:41.204Z,1.52
2022-11-03T00:44:10.473Z,1.52
2022-11-03T00:46:39.978Z,1.45
2022-11-03T00:49:07.964Z,1.10
2022-11-03T00:51:35.980Z,1.08
2022-11-03T00:54:07.044Z,1.50
2022-11-03T00:56:37.906Z,1.48
2022-11-03T00:59:08.200Z,1.80
2022-11-03T01:01:45.347Z,1.33
2022-11-03T01:04:33.700Z,1.25
2022-11-03T01:07:03.276Z,1.20
2022-11-03T01:09:36.027Z,1.42
2022-11-03T01:12:07.506Z,1.20
2022-11-03T01:14:38.343Z,1.10
2022-11-03T01:17:09.838Z,1.40
2022-11-03T01:19:37.755Z,1.52
2022-11-03T01:22:09.633Z,1.25
2022-11-03T01:24:41.016Z,1.20
2022-11-03T01:27:09.978Z,1.00
2022-11-03T01:29:37.920Z,1.33
2022-11-03T01:32:08.271Z,1.20
2022-11-03T01:34:36.692Z,1.67
2022-11-03T01:37:05.787Z,1.67
2022-11-03T01:39:33.713Z,1.58
2022-11-03T01:42:01.748Z,1.20
2022-11-03T01:44:33.765Z,1.45
2022-11-03T01:47:23.611Z,1.60
2022-11-03T01:49:59.228Z,1.60
2022-11-03T01:52:36.488Z,1.45
2022-11-03T01:55:11.477Z,1.70
2022-11-03T01:57:45.899Z,1.10
2022-11-03T02:00:15.396Z,0.93
2022-11-03T02:02:45.609Z,1.45
2022-11-03T02:05:16.470Z,1.55
2022-11-03T02:07:50.880Z,1.25
2022-11-03T02:10:19.575Z,1.38
2022-11-03T02:12:49.055Z,1.45
2022-11-03T02:15:21.485Z,1.38
2022-11-03T02:17:54.905Z,1.65
2022-11-03T02:20:27.297Z,1.50
2022-11-03T02:23:21.750Z,1.30
2022-11-03T02:25:54.095Z,1.70
2022-11-03T02:28:25.333Z,1.85
2022-11-03T02:31:04.783Z,1.30
2022-11-03T02:33:47.576Z,1.45
2022-11-03T02:36:25.232Z,2.17
2022-11-03T02:38:59.358Z,1.67
2022-11-03T02:41:31.506Z,1.33
2022-11-03T02:44:02.146Z,1.40
2022-11-03T02:46:33.671Z,1.48
2022-11-03T02:49:01.595Z,1.42
2022-11-03T02:51:29.499Z,1.73
2022-11-03T02:54:08.747Z,1.65
2022-11-03T02:56:46.060Z,1.23
2022-11-03T02:59:18.826Z,1.35
2022-11-03T03:01:55.333Z,1.50
2022-11-03T03:04:33.889Z,1.20
2022-11-03T03:07:06.521Z,1.23
2022-11-03T03:09:42.415Z,1.73
2022-11-03T03:12:14.786Z,1.42
2022-11-03T03:14:46.713Z,1.70
2022-11-03T03:17:24.066Z,1.50
2022-11-03T03:20:00.148Z,1.58
2022-11-03T03:22:35.195Z,1.63
2022-11-03T03:25:12.553Z,1.10
2022-11-03T03:27:46.942Z,1.13
2022-11-03T03:30:15.624Z,1.30
2022-11-03T03:32:49.106Z,1.52
2022-11-03T03:35:23.418Z,1.50
2022-11-03T03:37:57.239Z,1.33
2022-11-03T03:40:32.894Z,1.60
2022-11-03T03:43:05.452Z,1.77
2022-11-03T03:45:35.520Z,1.25
2022-11-03T03:48:06.561Z,1.60
2022-11-03T03:50:39.462Z,1.15
2022-11-03T03:53:13.002Z,1.60
2022-11-03T03:55:45.167Z,1.23
2022-11-03T03:58:16.819Z,1.25
2022-11-03T04:00:45.149Z,1.25
2022-11-03T04:03:18.796Z,1.48
2022-11-03T04:05:47.531Z,1.60
2022-11-03T04:08:17.780Z,1.25
2022-11-03T04:11:06.456Z,1.30
2022-11-03T04:13:53.338Z,1.30
2022-11-03T04:16:38.606Z,1.60
2022-11-03T04:19:24.223Z,1.30
2022-11-03T04:22:09.656Z,2.05
2022-11-03T04:24:37.577Z,1.52
2022-11-03T04:27:30.453Z,1.63
2022-11-03T04:30:15.486Z,1.23
2022-11-03T04:32:44.960Z,1.50
2022-11-03T04:35:18.721Z,1.50
2022-11-03T04:37:52.230Z,1.10
2022-11-03T04:40:20.322Z,1.60
2022-11-03T04:42:48.473Z,1.50
2022-11-03T04:45:25.191Z,1.40
2022-11-03T04:47:54.049Z,1.92
2022-11-03T04:50:24.767Z,1.60
2022-11-03T04:52:57.933Z,1.13
2022-11-03T04:55:27.885Z,1.75
2022-11-03T04:58:01.116Z,1.60
2022-11-03T05:00:30.393Z,1.67
2022-11-03T05:02:58.330Z,0.85
2022-11-03T05:05:27.666Z,1.33
2022-11-03T05:07:59.278Z,1.33
2022-11-03T05:10:30.322Z,1.60
2022-11-03T05:13:01.177Z,0.98
2022-11-03T05:15:37.106Z,1.40
2022-11-03T05:18:20.074Z,1.50
2022-11-03T05:20:54.278Z,1.30
2022-11-03T05:23:23.937Z,1.42
2022-11-03T05:25:55.313Z,1.48
2022-11-03T05:28:27.488Z,1.95
2022-11-03T05:30:57.367Z,1.10
2022-11-03T05:33:30.636Z,1.40
2022-11-03T05:36:04.202Z,1.52
2022-11-03T05:38:34.308Z,1.60
2022-11-03T05:41:02.935Z,1.10
2022-11-03T05:43:30.879Z,1.73
2022-11-03T05:46:04.185Z,1.42
2022-11-03T05:48:36.087Z,1.20
2022-11-03T05:51:17.671Z,1.35
2022-11-03T05:53:46.272Z,1.30
2022-11-03T05:56:20.634Z,1.42
2022-11-03T05:58:51.383Z,1.58
2022-11-03T06:01:29.621Z,1.58
2022-11-03T06:04:00.380Z,1.45
2022-11-03T06:06:35.845Z,1.58
2022-11-03T06:09:13.183Z,1.23
2022-11-03T06:11:41.613Z,0.93
2022-11-03T06:14:21.248Z,1.13
2022-11-03T06:16:56.591Z,1.38
2022-11-03T06:19:29.686Z,1.38
2022-11-03T06:22:02.785Z,1.70
2022-11-03T06:24:34.757Z,1.50
2022-11-03T06:27:02.737Z,1.50
2022-11-03T06:29:34.251Z,1.38
2022-11-03T06:32:03.627Z,1.20
2022-11-03T06:34:40.311Z,1.42
2022-11-03T06:37:21.136Z,1.10
2022-11-03T06:39:50.341Z,1.48
2022-11-03T06:42:23.851Z,1.55
2022-11-03T06:44:53.552Z,1.15
2022-11-03T06:47:25.941Z,1.50
2022-11-03T06:49:57.534Z,1.75
2022-11-03T06:52:32.347Z,1.30
2022-11-03T06:55:26.626Z,1.17
2022-11-03T06:58:00.009Z,1.15
2022-11-03T07:00:35.141Z,1.30
2022-11-03T07:03:11.891Z,1.35
2022-11-03T07:05:41.602Z,1.10
2022-11-03T07:08:26.043Z,1.20
2022-11-03T07:11:03.492Z,1.00
2022-11-03T07:13:34.413Z,1.20
2022-11-03T07:16:02.703Z,1.65
2022-11-03T07:18:38.901Z,1.45
2022-11-03T07:21:31.952Z,1.45
2022-11-03T07:24:03.945Z,1.30
2022-11-03T07:26:34.712Z,1.58
2022-11-03T07:29:03.369Z,1.60
2022-11-03T07:31:33.195Z,1.17
2022-11-03T07:34:02.718Z,1.30
2022-11-03T07:36:32.967Z,1.60
2022-11-03T07:39:03.721Z,1.63
2022-11-03T07:41:34.985Z,1.58
2022-11-03T07:44:03.575Z,1.38
2022-11-03T07:46:31.777Z,1.42
2022-11-03T07:49:02.739Z,1.30
2022-11-03T07:51:33.997Z,1.70
2022-11-03T07:54:11.116Z,1.75
2022-11-03T07:56:44.089Z,1.35
2022-11-03T07:59:19.506Z,1.33
2022-11-03T08:01:52.268Z,1.25
2022-11-03T08:04:25.553Z,1.48
2022-11-03T08:06:53.512Z,1.48
2022-11-03T08:09:22.102Z,1.27
2022-11-03T08:11:50.957Z,1.40
2022-11-03T08:14:19.005Z,1.45
2022-11-03T08:16:46.993Z,1.98
2022-11-03T08:19:14.903Z,1.60
2022-11-03T08:21:44.218Z,1.45
2022-11-03T08:24:12.157Z,1.23
2022-11-03T08:26:40.086Z,1.33
2022-11-03T08:29:08.018Z,1.48
2022-11-03T08:31:35.923Z,1.20
2022-11-03T08:34:03.883Z,1.33
2022-11-03T08:36:31.808Z,1.30
2022-11-03T08:39:01.065Z,1.92
2022-11-03T08:41:28.963Z,1.10
2022-11-03T08:43:56.978Z,1.48
2022-11-03T08:46:24.894Z,1.38
2022-11-03T08:48:53.506Z,1.40
2022-11-03T08:51:21.429Z,1.45
2022-11-03T08:53:50.576Z,1.60
2022-11-03T08:56:22.330Z,1.52
2022-11-03T08:58:50.926Z,1.83
2022-11-03T09:01:18.923Z,1.60
2022-11-03T09:03:46.951Z,1.02
2022-11-03T09:06:14.865Z,1.13
2022-11-03T09:11:39.659Z,1.38
2022-11-03T09:14:07.776Z,1.83
2022-11-03T09:16:35.935Z,1.38
2022-11-03T09:19:04.182Z,1.75
2022-11-03T09:21:32.277Z,1.52
2022-11-03T09:24:00.336Z,1.50
2022-11-03T09:26:28.463Z,1.17
2022-11-03T09:28:58.151Z,1.48
2022-11-03T09:31:28.468Z,1.25
2022-11-03T09:33:57.116Z,1.38
2022-11-03T09:36:25.316Z,1.17
2022-11-03T09:38:53.461Z,1.10
2022-11-03T09:41:26.945Z,1.40
2022-11-03T09:44:05.001Z,1.35
2022-11-03T09:46:35.703Z,1.80
2022-11-03T09:49:06.121Z,1.30
2022-11-03T09:51:37.233Z,1.48
2022-11-03T09:54:06.824Z,1.40
2022-11-03T09:56:38.020Z,1.30
2022-11-03T09:59:17.127Z,1.73
2022-11-03T10:01:48.713Z,0.85
2022-11-03T10:04:19.775Z,1.50
2022-11-03T10:06:47.860Z,1.35
2022-11-03T10:09:20.578Z,1.23
2022-11-03T10:11:49.343Z,1.13
2022-11-03T10:14:20.064Z,1.40
2022-11-03T10:16:57.114Z,1.30
2022-11-03T10:19:25.691Z,1.48
2022-11-03T10:21:54.195Z,1.15
2022-11-03T10:24:22.268Z,1.55
2022-11-03T10:26:54.639Z,1.70
2022-11-03T10:29:26.501Z,1.40
2022-11-03T10:31:57.029Z,1.05
2022-11-03T10:34:32.938Z,0.90
2022-11-03T10:37:20.830Z,1.50
2022-11-03T10:39:50.532Z,1.00
2022-11-03T10:42:22.082Z,0.80
2022-11-03T10:44:54.590Z,1.00
2022-11-03T10:47:28.053Z,1.13
2022-11-03T10:49:56.173Z,1.10
2022-11-03T10:52:27.017Z,1.15
2022-11-03T10:54:57.936Z,1.38
2022-11-03T10:57:28.521Z,1.02
2022-11-03T10:59:58.244Z,1.45
2022-11-03T11:02:32.872Z,1.20
2022-11-03T11:05:23.173Z,1.15
2022-11-03T11:07:53.485Z,1.05
2022-11-03T11:10:25.395Z,1.00
2022-11-03T11:13:27.681Z,1.45
2022-11-03T11:16:39.354Z,1.15
2022-11-03T11:19:16.358Z,0.95
2022-11-03T11:22:13.885Z,0.90
2022-11-03T11:25:04.077Z,1.60
2022-11-03T11:28:21.273Z,1.15
2022-11-03T11:31:04.193Z,0.75
2022-11-03T11:37:57.765Z,1.25
2022-11-03T11:43:53.568Z,1.00
2022-11-03T11:46:42.236Z,1.10
2022-11-03T11:49:19.153Z,0.77
2022-11-03T11:51:55.386Z,1.20
2022-11-03T11:57:58.892Z,1.20
2022-11-03T12:00:58.859Z,1.13
2022-11-03T12:03:58.910Z,0.70
2022-11-03T12:13:52.980Z,1.10
2022-11-03T12:16:37.904Z,1.10
2022-11-03T12:19:48.858Z,1.20
2022-11-03T12:22:58.329Z,1.00
2022-11-03T12:25:37.005Z,0.75
2022-11-03T12:28:06.645Z,0.52
2022-11-03T12:30:39.557Z,1.02
2022-11-03T12:33:08.794Z,1.00
2022-11-03T12:35:38.725Z,1.10
2022-11-03T12:38:06.793Z,0.90
2022-11-03T12:40:34.887Z,1.17
2022-11-03T12:43:02.939Z,1.13
2022-11-03T12:45:31.353Z,0.88
2022-11-03T12:48:00.241Z,1.00
2022-11-03T12:50:52.068Z,1.02
2022-11-03T12:56:45.682Z,1.10
2022-11-03T12:59:23.755Z,0.50
2022-11-03T13:02:19.913Z,0.80
2022-11-03T13:05:15.386Z,0.93
2022-11-03T13:07:59.013Z,0.77
2022-11-03T13:10:55.990Z,1.00
2022-11-03T13:14:14.247Z,1.50
2022-11-03T13:17:07.786Z,0.80
2022-11-03T13:20:26.092Z,0.95
2022-11-03T13:23:06.794Z,1.05
2022-11-03T13:25:35.347Z,0.98
2022-11-03T13:28:07.595Z,0.98
2022-11-03T13:30:43.457Z,0.80
2022-11-03T13:33:43.872Z,1.15
2022-11-03T13:36:12.031Z,1.05
2022-11-03T13:38:41.437Z,1.02
2022-11-03T13:41:09.541Z,1.15
2022-11-03T13:43:37.829Z,1.17
2022-11-03T13:46:06.126Z,0.90
2022-11-03T13:51:22.323Z,1.00
2022-11-03T13:59:28.580Z,0.95
2022-11-03T14:04:45.341Z,1.10
2022-11-03T14:07:13.392Z,0.90
2022-11-03T14:09:42.860Z,1.20
2022-11-03T14:12:37.048Z,0.90
2022-11-03T14:15:09.606Z,0.80
2022-11-03T14:17:38.338Z,0.90
2022-11-03T14:20:09.619Z,0.90
2022-11-03T14:22:37.638Z,0.88
2022-11-03T14:25:08.675Z,1.05
2022-11-03T14:27:36.846Z,1.05
2022-11-03T14:30:06.493Z,1.20
2022-11-03T14:32:34.510Z,0.90
2022-11-03T14:35:02.661Z,1.17
2022-11-03T14:37:30.982Z,0.88
2022-11-03T14:39:59.008Z,1.27
2022-11-03T14:42:27.440Z,1.02
2022-11-03T14:44:55.591Z,1.20
2022-11-03T14:47:23.590Z,1.40
2022-11-03T14:49:51.677Z,1.10
2022-11-03T14:52:19.660Z,1.25
2022-11-03T14:54:48.259Z,0.90
2022-11-03T14:57:16.264Z,1.00
2022-11-03T14:59:48.028Z,1.65
2022-11-03T15:02:20.294Z,1.02
2022-11-03T15:04:48.340Z,0.85
2022-11-03T15:07:16.325Z,0.85
2022-11-03T15:09:44.339Z,1.00
2022-11-03T15:12:12.373Z,1.60
2022-11-03T15:14:40.502Z,1.20
2022-11-03T15:17:09.879Z,1.30
2022-11-03T15:19:37.894Z,1.58
2022-11-03T15:22:05.816Z,1.20
2022-11-03T15:27:21.785Z,0.98
2022-11-03T15:29:49.764Z,1.17
2022-11-03T15:32:19.081Z,1.23
2022-11-03T15:34:47.188Z,1.25
2022-11-03T15:37:15.606Z,1.05
2022-11-03T15:39:43.571Z,0.95
2022-11-03T15:42:11.533Z,1.15
2022-11-03T15:44:39.527Z,1.65
2022-11-03T15:47:07.937Z,1.17
2022-11-03T15:49:37.552Z,1.48
2022-11-03T15:52:06.446Z,1.33
2022-11-03T15:54:38.461Z,1.30
2022-11-03T15:57:09.529Z,1.23
2022-11-03T15:59:38.377Z,1.42
2022-11-03T16:02:14.234Z,1.20
2022-11-03T16:04:57.158Z,0.98
2022-11-03T16:07:25.276Z,1.48
2022-11-03T16:09:53.262Z,1.27
2022-11-03T16:12:23.435Z,1.40
2022-11-03T16:14:51.679Z,1.40
2022-11-03T16:17:22.198Z,1.10
2022-11-03T16:19:50.922Z,1.30
2022-11-03T16:22:20.265Z,1.33
2022-11-03T16:24:48.594Z,1.42
2022-11-03T16:27:16.561Z,1.58
2022-11-03T16:29:44.554Z,1.40
2022-11-03T16:32:12.550Z,1.73
2022-11-03T16:34:40.570Z,1.35
2022-11-03T16:37:08.622Z,1.52
2022-11-03T16:39:39.077Z,1.42
2022-11-03T16:42:07.424Z,1.33
2022-11-03T16:44:35.453Z,1.50
2022-11-03T16:47:03.421Z,1.52
2022-11-03T16:49:31.418Z,1.33
2022-11-03T16:51:59.376Z,1.40
2022-11-03T16:54:27.425Z,1.65
2022-11-03T16:56:56.764Z,1.40
2022-11-03T16:59:26.314Z,1.20
2022-11-03T17:01:55.658Z,1.35
2022-11-03T17:04:23.811Z,1.35
2022-11-03T17:06:52.042Z,1.00
2022-11-03T17:09:20.696Z,1.60
2022-11-03T17:11:48.726Z,1.52
2022-11-03T17:14:18.061Z,1.92
2022-11-03T17:16:48.382Z,1.20
2022-11-03T17:19:17.037Z,1.60
2022-11-03T17:21:51.434Z,1.77
2022-11-03T17:24:20.196Z,1.48
2022-11-03T17:26:56.448Z,1.30
2022-11-03T17:29:33.805Z,1.77
2022-11-03T17:32:03.783Z,1.40
2022-11-03T17:34:32.613Z,1.42
2022-11-03T17:37:00.809Z,1.95
2022-11-03T17:39:34.079Z,1.45
2022-11-03T17:42:16.633Z,1.55
2022-11-03T17:44:48.065Z,1.80
2022-11-03T17:47:17.252Z,1.58
2022-11-03T17:49:45.875Z,1.35
2022-11-03T17:52:23.488Z,1.70
2022-11-03T17:54:58.041Z,1.50
2022-11-03T17:57:27.843Z,1.55
2022-11-03T18:00:00.428Z,1.60
2022-11-03T18:02:32.722Z,1.50
2022-11-03T18:05:21.307Z,1.70
2022-11-03T18:07:50.537Z,1.58
2022-11-03T18:10:18.637Z,1.88
2022-11-03T18:13:07.257Z,1.83
2022-11-03T18:15:39.068Z,1.80
2022-11-03T18:18:15.439Z,1.60
2022-11-03T18:20:53.080Z,2.08
2022-11-03T18:23:24.852Z,1.88
2022-11-03T18:25:54.380Z,1.50
2022-11-03T18:28:22.663Z,1.27
2022-11-03T18:30:56.060Z,1.70
2022-11-03T18:33:27.670Z,1.73
2022-11-03T18:35:56.242Z,1.65
2022-11-03T18:38:26.625Z,1.80
2022-11-03T18:40:55.045Z,1.83
2022-11-03T18:43:24.944Z,1.90
2022-11-03T18:45:54.331Z,1.20
2022-11-03T18:48:22.528Z,1.83
2022-11-03T18:50:53.637Z,1.45
2022-11-03T18:53:24.589Z,1.98
2022-11-03T18:55:54.787Z,1.92
2022-11-03T18:58:26.041Z,1.52
2022-11-03T19:00:55.667Z,1.63
2022-11-03T19:03:25.076Z,1.75
2022-11-03T19:05:54.512Z,1.90
2022-11-03T19:08:27.639Z,1.95
2022-11-03T19:10:56.908Z,1.77
2022-11-03T19:13:30.311Z,1.80
2022-11-03T19:16:02.591Z,2.10
2022-11-03T19:18:36.903Z,2.35
2022-11-03T19:21:12.745Z,1.77
2022-11-03T19:23:41.745Z,2.22
2022-11-03T19:26:20.929Z,1.85
2022-11-03T19:28:53.817Z,2.13
2022-11-03T19:31:31.855Z,2.08
2022-11-03T19:34:01.130Z,1.65
2022-11-03T19:36:31.256Z,2.00
2022-11-03T19:39:00.142Z,2.00
2022-11-03T19:41:45.801Z,1.45
2022-11-03T19:44:14.888Z,2.10
2022-11-03T19:46:44.537Z,1.80
2022-11-03T19:49:15.308Z,1.80
2022-11-03T19:51:43.717Z,1.85
2022-11-03T19:54:18.577Z,2.03
2022-11-03T19:56:47.412Z,2.15
2022-11-03T19:59:18.564Z,2.33
2022-11-03T20:01:49.578Z,2.10
2022-11-03T20:04:17.872Z,2.17
2022-11-03T20:06:46.136Z,1.88
2022-11-03T20:09:18.377Z,2.17
2022-11-03T20:11:46.633Z,1.70
2022-11-03T20:14:22.057Z,1.73
2022-11-03T20:16:51.446Z,1.73
2022-11-03T20:19:19.485Z,1.83
2022-11-03T20:21:47.626Z,2.10
2022-11-03T20:24:18.714Z,2.17
2022-11-03T20:26:47.077Z,2.28
2022-11-03T20:29:16.876Z,2.10
2022-11-03T20:31:46.062Z,1.77
2022-11-03T20:34:16.569Z,2.00
2022-11-03T20:36:45.136Z,2.10
2022-11-03T20:39:17.665Z,2.30
2022-11-03T20:41:49.173Z,2.63
2022-11-03T20:44:17.494Z,2.10
2022-11-03T20:46:45.638Z,2.30
2022-11-03T20:49:15.079Z,2.10
2022-11-03T20:51:46.497Z,2.30
2022-11-03T20:54:18.484Z,2.70
2022-11-03T20:56:47.112Z,2.33
2022-11-03T20:59:18.234Z,2.00
2022-11-03T21:01:46.689Z,2.00
2022-11-03T21:04:35.761Z,1.75
2022-11-03T21:07:05.199Z,2.33
2022-11-03T21:09:33.301Z,2.35
2022-11-03T21:12:01.352Z,2.30
2022-11-03T21:14:31.322Z,1.98
2022-11-03T21:17:17.143Z,2.13
2022-11-03T21:20:07.925Z,2.05
2022-11-03T21:22:55.128Z,2.20
2022-11-03T21:25:25.348Z,2.28
2022-11-03T21:27:54.641Z,2.05
2022-11-03T21:30:24.101Z,2.35
2022-11-03T21:32:52.276Z,2.25
2022-11-03T21:35:23.164Z,2.22
2022-11-03T21:37:51.186Z,2.47
2022-11-03T21:40:19.340Z,2.40
2022-11-03T21:43:05.071Z,2.30
2022-11-03T21:45:33.557Z,2.33
2022-11-03T21:48:22.071Z,2.20
2022-11-03T21:50:52.046Z,1.85
2022-11-03T21:53:20.091Z,2.22
2022-11-03T21:55:49.444Z,2.45
2022-11-03T21:58:17.636Z,2.22
2022-11-03T22:00:46.998Z,2.60
2022-11-03T22:03:15.509Z,2.38
2022-11-03T22:05:43.623Z,2.40
2022-11-03T22:08:13.053Z,2.13
2022-11-03T22:10:41.512Z,1.95
2022-11-03T22:13:10.483Z,2.17
2022-11-03T22:15:56.740Z,2.10
2022-11-03T22:18:25.010Z,1.90
2022-11-03T22:21:10.619Z,2.22
2022-11-03T22:24:09.001Z,1.98
2022-11-03T22:26:54.585Z,2.22
2022-11-03T22:29:40.177Z,1.60
2022-11-03T22:32:15.323Z,2.30
2022-11-03T22:35:01.082Z,1.85
2022-11-03T22:40:15.066Z,1.83
2022-11-03T22:43:00.993Z,1.63
2022-11-03T22:45:46.893Z,1.75
2022-11-03T22:48:14.949Z,1.90
2022-11-03T22:50:42.937Z,1.90
2022-11-03T22:53:28.606Z,1.73
2022-11-03T22:56:01.697Z,1.55
2022-11-03T22:58:30.868Z,1.48
2022-11-03T23:01:03.493Z,1.85
2022-11-03T23:03:32.889Z,1.85
2022-11-03T23:06:03.262Z,1.90
2022-11-03T23:08:32.985Z,1.85
2022-11-03T23:11:15.890Z,1.88
2022-11-03T23:13:45.316Z,1.63
2022-11-03T23:16:16.363Z,1.70
2022-11-03T23:19:02.599Z,1.92
2022-11-03T23:21:33.828Z,1.58
2022-11-03T23:24:20.199Z,1.67
2022-11-03T23:26:50.099Z,1.67
2022-11-03T23:29:18.440Z,1.58
2022-11-03T23:31:47.294Z,1.77
2022-11-03T23:34:15.945Z,1.65
2022-11-03T23:36:44.033Z,2.10
2022-11-03T23:39:14.929Z,1.70
2022-11-03T23:41:44.557Z,1.83
2022-11-03T23:44:15.996Z,1.98
2022-11-03T23:47:03.258Z,2.10
2022-11-03T23:49:31.500Z,2.05
2022-11-03T23:51:59.527Z,1.75
2022-11-03T23:54:27.621Z,1.70
2022-11-03T23:57:13.589Z,1.70
2022-11-03T23:59:42.897Z,1.48
